createdAt,value
2018-07-24T00:00:09.365Z,19.06
2018-07-24T00:01:09.383Z,19.11
2018-07-24T00:02:09.397Z,19.08
2018-07-24T00:03:09.416Z,19.10
2018-07-24T00:04:09.434Z,19.11
2018-07-24T00:05:09.494Z,19.04
2018-07-24T00:06:09.458Z,19.07
2018-07-24T00:07:09.483Z,19.07
2018-07-24T00:08:09.503Z,19.08
2018-07-24T00:09:09.515Z,19.13
2018-07-24T00:10:09.527Z,19.16
2018-07-24T00:11:09.593Z,19.19
2018-07-24T00:12:09.563Z,19.07
2018-07-24T00:13:09.573Z,19.16
2018-07-24T00:14:09.591Z,19.19
2018-07-24T00:15:09.608Z,19.08
2018-07-24T00:16:09.621Z,19.13
2018-07-24T00:17:09.689Z,19.07
2018-07-24T00:18:09.653Z,19.18
2018-07-24T00:19:09.675Z,19.18
2018-07-24T00:20:09.695Z,19.16
2018-07-24T00:21:09.710Z,19.18
2018-07-24T00:22:09.723Z,19.25
2018-07-24T00:23:09.784Z,19.23
2018-07-24T00:24:09.752Z,19.16
2018-07-24T00:25:09.856Z,19.25
2018-07-24T00:26:09.791Z,19.14
2018-07-24T00:27:09.812Z,19.18
2018-07-24T00:28:09.820Z,19.26
2018-07-24T00:29:09.889Z,19.23
2018-07-24T00:30:09.858Z,19.26
2018-07-24T00:31:09.891Z,19.28
2018-07-24T00:32:09.921Z,19.28
2018-07-24T00:33:09.905Z,19.26
2018-07-24T00:34:09.926Z,19.31
2018-07-24T00:35:09.933Z,19.32
2018-07-24T00:36:09.955Z,19.28
2018-07-24T00:37:10.031Z,19.33
2018-07-24T00:38:09.984Z,19.32
2018-07-24T00:39:09.996Z,19.26
2018-07-24T00:40:10.014Z,19.33
2018-07-24T00:41:10.087Z,19.36
2018-07-24T00:42:10.051Z,19.26
2018-07-24T00:43:10.115Z,19.37
2018-07-24T00:44:10.080Z,19.36
2018-07-24T00:45:10.105Z,19.37
2018-07-24T00:46:10.119Z,19.40
2018-07-24T00:47:10.191Z,19.43
2018-07-24T00:48:10.150Z,19.37
2018-07-24T00:49:10.180Z,19.40
2018-07-24T00:50:10.182Z,19.40
2018-07-24T00:51:10.208Z,19.43
2018-07-24T00:52:10.216Z,19.47
2018-07-24T00:53:10.242Z,19.39
2018-07-24T00:54:10.280Z,19.40
2018-07-24T00:55:10.267Z,19.44
2018-07-24T00:56:10.287Z,19.47
2018-07-24T00:57:10.296Z,19.56
2018-07-24T00:58:10.322Z,19.54
2018-07-24T00:59:10.329Z,19.58
2018-07-24T01:00:10.351Z,19.56
2018-07-24T01:01:10.369Z,19.63
2018-07-24T01:02:10.390Z,19.66
2018-07-24T01:03:10.403Z,19.69
2018-07-24T01:04:10.416Z,19.63
2018-07-24T01:05:10.476Z,19.62
2018-07-24T01:06:10.451Z,19.68
2018-07-24T01:07:10.469Z,19.63
2018-07-24T01:08:10.475Z,19.77
2018-07-24T01:09:10.496Z,19.63
2018-07-24T01:10:10.522Z,19.73
2018-07-24T01:11:10.587Z,19.62
2018-07-24T01:12:10.541Z,19.62
2018-07-24T01:13:10.557Z,19.71
2018-07-24T01:14:10.577Z,19.73
2018-07-24T01:15:10.598Z,19.71
2018-07-24T01:16:10.613Z,19.71
2018-07-24T01:17:10.680Z,19.80
2018-07-24T01:18:10.641Z,19.86
2018-07-24T01:19:10.656Z,19.81
2018-07-24T01:20:10.683Z,19.74
2018-07-24T01:21:10.695Z,19.81
2018-07-24T01:22:10.709Z,19.73
2018-07-24T01:23:10.781Z,19.76
2018-07-24T01:24:10.748Z,19.77
2018-07-24T01:25:10.761Z,19.78
2018-07-24T01:26:10.779Z,19.71
2018-07-24T01:27:10.803Z,19.77
2018-07-24T01:28:10.813Z,19.80
2018-07-24T01:29:10.833Z,19.74
2018-07-24T01:30:10.844Z,19.76
2018-07-24T01:31:10.947Z,19.66
2018-07-24T01:32:10.879Z,19.61
2018-07-24T01:33:10.896Z,19.61
2018-07-24T01:34:10.921Z,19.68
2018-07-24T01:35:10.932Z,19.71
2018-07-24T01:36:10.951Z,19.73
2018-07-24T01:37:10.957Z,19.73
2018-07-24T01:38:10.984Z,19.77
2018-07-24T01:39:11.000Z,19.83
2018-07-24T01:40:11.016Z,19.77
2018-07-24T01:41:11.084Z,19.83
2018-07-24T01:42:11.047Z,19.78
2018-07-24T01:43:11.065Z,19.87
2018-07-24T01:44:11.081Z,19.81
2018-07-24T01:45:11.099Z,19.78
2018-07-24T01:46:11.115Z,19.81
2018-07-24T01:47:11.132Z,19.91
2018-07-24T01:48:11.143Z,19.92
2018-07-24T01:49:11.153Z,19.84
2018-07-24T01:50:11.180Z,19.80
2018-07-24T01:51:11.189Z,19.80
2018-07-24T01:52:11.213Z,19.78
2018-07-24T01:53:11.279Z,19.81
2018-07-24T01:54:11.254Z,19.80
2018-07-24T01:55:11.257Z,19.80
2018-07-24T01:56:11.282Z,19.78
2018-07-24T01:57:11.295Z,19.83
2018-07-24T01:58:11.359Z,19.84
2018-07-24T01:59:11.330Z,19.78
2018-07-24T02:00:11.340Z,19.86
2018-07-24T02:01:11.364Z,19.81
2018-07-24T02:02:11.459Z,19.83
2018-07-24T02:03:11.388Z,19.87
2018-07-24T02:04:11.457Z,19.83
2018-07-24T02:05:11.420Z,19.84
2018-07-24T02:06:11.445Z,19.83
2018-07-24T02:07:11.452Z,19.80
2018-07-24T02:08:11.498Z,19.84
2018-07-24T02:09:11.489Z,19.78
2018-07-24T02:10:11.508Z,19.76
2018-07-24T02:11:11.521Z,19.78
2018-07-24T02:12:11.540Z,19.76
2018-07-24T02:13:11.563Z,19.77
2018-07-24T02:14:11.580Z,19.81
2018-07-24T02:15:11.587Z,19.81
2018-07-24T02:16:11.657Z,19.81
2018-07-24T02:17:11.626Z,19.73
2018-07-24T02:18:11.646Z,19.77
2018-07-24T02:19:11.663Z,19.71
2018-07-24T02:20:11.757Z,19.71
2018-07-24T02:21:11.699Z,19.71
2018-07-24T02:22:11.759Z,19.78
2018-07-24T02:23:11.721Z,19.77
2018-07-24T02:24:11.737Z,19.80
2018-07-24T02:25:11.754Z,19.76
2018-07-24T02:26:11.831Z,19.77
2018-07-24T02:27:11.792Z,19.77
2018-07-24T02:28:11.856Z,19.69
2018-07-24T02:29:11.823Z,19.65
2018-07-24T02:30:11.844Z,19.61
2018-07-24T02:31:11.860Z,19.47
2018-07-24T02:32:11.880Z,19.47
2018-07-24T02:33:11.892Z,19.50
2018-07-24T02:34:11.917Z,19.47
2018-07-24T02:35:11.921Z,19.51
2018-07-24T02:36:11.941Z,19.47
2018-07-24T02:37:11.957Z,19.47
2018-07-24T02:38:11.970Z,19.50
2018-07-24T02:39:11.988Z,19.58
2018-07-24T02:40:12.008Z,19.58
2018-07-24T02:41:12.024Z,19.65
2018-07-24T02:42:12.040Z,19.55
2018-07-24T02:43:12.060Z,19.68
2018-07-24T02:44:12.074Z,19.50
2018-07-24T02:45:12.090Z,19.55
2018-07-24T02:46:12.156Z,19.56
2018-07-24T02:47:12.118Z,19.56
2018-07-24T02:48:12.140Z,19.51
2018-07-24T02:49:12.160Z,19.46
2018-07-24T02:50:12.182Z,19.39
2018-07-24T02:51:12.196Z,19.40
2018-07-24T02:52:12.211Z,19.40
2018-07-24T02:53:12.225Z,19.41
2018-07-24T02:54:12.256Z,19.36
2018-07-24T02:55:12.260Z,19.39
2018-07-24T02:56:12.271Z,19.36
2018-07-24T02:57:12.305Z,19.37
2018-07-24T02:58:12.359Z,19.37
2018-07-24T02:59:12.313Z,19.29
2018-07-24T03:00:12.328Z,19.36
2018-07-24T03:01:12.345Z,19.40
2018-07-24T03:02:12.361Z,19.40
2018-07-24T03:03:12.416Z,19.40
2018-07-24T03:04:12.446Z,19.50
2018-07-24T03:05:12.418Z,19.48
2018-07-24T03:06:12.438Z,19.46
2018-07-24T03:07:12.448Z,19.48
2018-07-24T03:08:12.464Z,19.46
2018-07-24T03:09:12.541Z,19.51
2018-07-24T03:10:12.552Z,19.41
2018-07-24T03:11:12.516Z,19.51
2018-07-24T03:12:12.530Z,19.51
2018-07-24T03:13:12.556Z,19.40
2018-07-24T03:14:12.561Z,19.39
2018-07-24T03:15:12.656Z,19.44
2018-07-24T03:16:12.722Z,19.41
2018-07-24T03:17:12.624Z,19.43
2018-07-24T03:18:12.640Z,19.41
2018-07-24T03:19:12.692Z,19.44
2018-07-24T03:20:12.667Z,19.36
2018-07-24T03:21:12.709Z,19.39
2018-07-24T03:22:12.699Z,19.37
2018-07-24T03:23:12.720Z,19.32
2018-07-24T03:24:12.749Z,19.36
2018-07-24T03:25:12.756Z,19.26
2018-07-24T03:26:12.765Z,19.22
2018-07-24T03:27:12.785Z,19.29
2018-07-24T03:28:12.809Z,19.29
2018-07-24T03:29:12.813Z,19.23
2018-07-24T03:30:12.829Z,19.39
2018-07-24T03:31:12.850Z,19.28
2018-07-24T03:32:12.861Z,19.41
2018-07-24T03:33:12.887Z,19.33
2018-07-24T03:34:12.901Z,19.41
2018-07-24T03:35:12.916Z,19.43
2018-07-24T03:36:12.932Z,19.41
2018-07-24T03:37:12.947Z,19.50
2018-07-24T03:38:12.961Z,19.47
2018-07-24T03:39:12.975Z,19.50
2018-07-24T03:40:13.045Z,19.50
2018-07-24T03:41:13.015Z,19.54
2018-07-24T03:42:13.039Z,19.37
2018-07-24T03:43:13.047Z,19.41
2018-07-24T03:44:13.062Z,19.48
2018-07-24T03:45:13.084Z,19.44
2018-07-24T03:46:13.235Z,19.47
2018-07-24T03:47:13.112Z,19.48
2018-07-24T03:48:13.125Z,19.48
2018-07-24T03:49:13.146Z,19.43
2018-07-24T03:50:13.167Z,19.41
2018-07-24T03:51:13.173Z,19.39
2018-07-24T03:52:13.219Z,19.26
2018-07-24T03:53:13.216Z,19.25
2018-07-24T03:54:13.235Z,19.18
2018-07-24T03:55:13.255Z,19.21
2018-07-24T03:56:13.263Z,19.28
2018-07-24T03:57:13.286Z,19.23
2018-07-24T03:58:13.419Z,19.23
2018-07-24T03:59:13.315Z,19.21
2018-07-24T04:00:13.329Z,19.31
2018-07-24T04:01:13.352Z,19.32
2018-07-24T04:02:13.419Z,19.26
2018-07-24T04:03:13.389Z,19.26
2018-07-24T04:04:13.451Z,19.33
2018-07-24T04:05:13.420Z,19.39
2018-07-24T04:06:13.435Z,19.28
2018-07-24T04:07:13.449Z,19.23
2018-07-24T04:08:13.468Z,19.23
2018-07-24T04:09:13.483Z,19.22
2018-07-24T04:10:13.549Z,19.18
2018-07-24T04:11:13.509Z,19.21
2018-07-24T04:12:13.528Z,19.25
2018-07-24T04:13:13.540Z,19.29
2018-07-24T04:14:13.563Z,19.28
2018-07-24T04:15:13.583Z,19.28
2018-07-24T04:16:13.647Z,19.29
2018-07-24T04:17:13.618Z,19.29
2018-07-24T04:18:13.624Z,19.22
2018-07-24T04:19:13.659Z,19.16
2018-07-24T04:20:13.663Z,19.23
2018-07-24T04:21:13.679Z,19.28
2018-07-24T04:22:13.817Z,19.29
2018-07-24T04:23:13.709Z,19.26
2018-07-24T04:24:13.720Z,19.33
2018-07-24T04:25:13.741Z,19.25
2018-07-24T04:26:13.761Z,19.23
2018-07-24T04:27:13.776Z,19.28
2018-07-24T04:28:13.871Z,19.31
2018-07-24T04:29:13.804Z,19.23
2018-07-24T04:30:13.828Z,19.28
2018-07-24T04:31:13.881Z,19.29
2018-07-24T04:32:13.862Z,19.23
2018-07-24T04:33:13.882Z,19.28
2018-07-24T04:34:13.969Z,19.28
2018-07-24T04:35:13.904Z,19.23
2018-07-24T04:36:13.930Z,19.10
2018-07-24T04:37:13.951Z,19.14
2018-07-24T04:38:13.957Z,19.00
2018-07-24T04:39:13.989Z,18.95
2018-07-24T04:40:14.077Z,18.94
2018-07-24T04:41:14.015Z,18.91
2018-07-24T04:42:14.026Z,18.94
2018-07-24T04:43:14.045Z,18.95
2018-07-24T04:44:14.067Z,18.98
2018-07-24T04:45:14.080Z,19.07
2018-07-24T04:46:14.173Z,19.10
2018-07-24T04:47:14.109Z,19.11
2018-07-24T04:48:14.121Z,19.10
2018-07-24T04:49:14.147Z,19.08
2018-07-24T04:50:14.159Z,19.14
2018-07-24T04:51:14.183Z,19.21
2018-07-24T04:52:14.310Z,19.14
2018-07-24T04:53:14.205Z,19.13
2018-07-24T04:54:14.223Z,19.13
2018-07-24T04:55:14.239Z,19.07
2018-07-24T04:56:14.252Z,19.13
2018-07-24T04:57:14.276Z,19.23
2018-07-24T04:58:14.340Z,19.14
2018-07-24T04:59:14.314Z,19.11
2018-07-24T05:00:14.321Z,19.13
2018-07-24T05:01:14.341Z,18.95
2018-07-24T05:02:14.356Z,19.06
2018-07-24T05:03:14.420Z,19.11
2018-07-24T05:04:14.446Z,19.13
2018-07-24T05:05:14.409Z,19.16
2018-07-24T05:06:14.434Z,19.18
2018-07-24T05:07:14.438Z,19.22
2018-07-24T05:08:14.463Z,19.22
2018-07-24T05:09:14.474Z,19.26
2018-07-24T05:10:14.552Z,19.25
2018-07-24T05:11:14.508Z,19.18
2018-07-24T05:12:14.526Z,19.19
2018-07-24T05:13:14.539Z,19.23
2018-07-24T05:14:14.553Z,19.31
2018-07-24T05:15:14.575Z,19.23
2018-07-24T05:16:14.640Z,19.23
2018-07-24T05:17:14.608Z,19.44
2018-07-24T05:18:14.631Z,19.41
2018-07-24T05:19:14.636Z,19.31
2018-07-24T05:20:14.659Z,19.40
2018-07-24T05:21:14.673Z,19.37
2018-07-24T05:22:14.687Z,19.33
2018-07-24T05:23:14.780Z,19.31
2018-07-24T05:24:14.718Z,19.33
2018-07-24T05:25:14.738Z,19.23
2018-07-24T05:26:14.819Z,19.29
2018-07-24T05:27:14.769Z,19.31
2018-07-24T05:28:14.833Z,19.33
2018-07-24T05:29:14.803Z,19.40
2018-07-24T05:30:14.822Z,19.39
2018-07-24T05:31:14.839Z,19.48
2018-07-24T05:32:14.855Z,19.46
2018-07-24T05:33:14.947Z,19.37
2018-07-24T05:34:14.936Z,19.36
2018-07-24T05:35:14.900Z,19.37
2018-07-24T05:36:14.917Z,19.37
2018-07-24T05:37:14.931Z,19.46
2018-07-24T05:38:14.947Z,19.41
2018-07-24T05:39:14.975Z,19.46
2018-07-24T05:40:15.048Z,19.50
2018-07-24T05:41:15.010Z,19.51
2018-07-24T05:42:15.114Z,19.43
2018-07-24T05:43:15.042Z,19.50
2018-07-24T05:44:15.055Z,19.43
2018-07-24T05:45:15.068Z,19.36
2018-07-24T05:46:15.141Z,19.25
2018-07-24T05:47:15.105Z,19.28
2018-07-24T05:48:15.188Z,19.26
2018-07-24T05:49:15.140Z,19.28
2018-07-24T05:50:15.158Z,19.28
2018-07-24T05:51:15.174Z,19.26
2018-07-24T05:52:15.253Z,19.28
2018-07-24T05:53:15.204Z,19.33
2018-07-24T05:54:15.302Z,19.44
2018-07-24T05:55:15.240Z,19.44
2018-07-24T05:56:15.257Z,19.55
2018-07-24T05:57:15.277Z,19.54
2018-07-24T05:58:15.357Z,19.61
2018-07-24T05:59:15.312Z,19.66
2018-07-24T06:00:15.319Z,19.73
2018-07-24T06:01:15.336Z,19.69
2018-07-24T06:02:15.352Z,19.66
2018-07-24T06:03:15.369Z,19.71
2018-07-24T06:04:15.434Z,19.74
2018-07-24T06:05:15.401Z,19.71
2018-07-24T06:06:15.419Z,19.80
2018-07-24T06:07:15.474Z,19.76
2018-07-24T06:08:15.456Z,19.77
2018-07-24T06:09:15.478Z,19.80
2018-07-24T06:10:15.540Z,19.77
2018-07-24T06:11:15.507Z,19.81
2018-07-24T06:12:15.528Z,19.71
2018-07-24T06:13:15.601Z,19.86
2018-07-24T06:14:15.558Z,19.88
2018-07-24T06:15:15.580Z,19.88
2018-07-24T06:16:15.640Z,19.92
2018-07-24T06:17:15.609Z,19.94
2018-07-24T06:18:15.632Z,19.94
2018-07-24T06:19:15.638Z,19.99
2018-07-24T06:20:15.656Z,19.94
2018-07-24T06:21:15.675Z,19.98
2018-07-24T06:22:15.737Z,19.88
2018-07-24T06:23:15.751Z,20.02
2018-07-24T06:24:15.779Z,20.11
2018-07-24T06:25:15.739Z,20.03
2018-07-24T06:26:15.758Z,20.10
2018-07-24T06:27:15.780Z,20.16
2018-07-24T06:28:15.851Z,20.13
2018-07-24T06:29:15.851Z,20.21
2018-07-24T06:30:15.847Z,20.16
2018-07-24T06:31:15.846Z,20.11
2018-07-24T06:32:15.866Z,20.20
2018-07-24T06:33:15.886Z,20.35
2018-07-24T06:34:15.945Z,20.41
2018-07-24T06:35:15.907Z,20.43
2018-07-24T06:36:15.926Z,20.28
2018-07-24T06:37:15.939Z,20.23
2018-07-24T06:38:15.960Z,20.39
2018-07-24T06:39:15.984Z,20.32
2018-07-24T06:40:16.047Z,20.38
2018-07-24T06:41:16.021Z,20.36
2018-07-24T06:42:16.031Z,20.43
2018-07-24T06:43:16.115Z,20.54
2018-07-24T06:44:16.091Z,20.57
2018-07-24T06:45:16.078Z,20.82
2018-07-24T06:46:16.101Z,20.99
2018-07-24T06:47:16.113Z,21.14
2018-07-24T06:48:16.129Z,21.22
2018-07-24T06:49:16.178Z,21.25
2018-07-24T06:50:16.170Z,21.40
2018-07-24T06:51:16.268Z,21.49
2018-07-24T06:52:16.244Z,21.50
2018-07-24T06:53:16.224Z,21.61
2018-07-24T06:54:16.238Z,21.50
2018-07-24T06:55:16.304Z,21.38
2018-07-24T06:56:16.270Z,21.35
2018-07-24T06:57:16.287Z,21.21
2018-07-24T06:58:16.351Z,20.97
2018-07-24T06:59:16.324Z,20.92
2018-07-24T07:00:16.342Z,20.77
2018-07-24T07:01:16.361Z,20.76
2018-07-24T07:02:16.466Z,20.76
2018-07-24T07:03:16.421Z,20.92
2018-07-24T07:04:16.459Z,21.21
2018-07-24T07:05:16.428Z,21.29
2018-07-24T07:06:16.439Z,21.52
2018-07-24T07:07:16.455Z,21.53
2018-07-24T07:08:16.557Z,21.61
2018-07-24T07:09:16.496Z,21.62
2018-07-24T07:10:16.661Z,21.64
2018-07-24T07:11:16.519Z,21.46
2018-07-24T07:12:16.540Z,21.46
2018-07-24T07:13:16.663Z,21.49
2018-07-24T07:14:16.613Z,21.54
2018-07-24T07:15:16.595Z,21.59
2018-07-24T07:16:16.724Z,21.50
2018-07-24T07:17:16.626Z,21.43
2018-07-24T07:18:16.662Z,21.38
2018-07-24T07:19:16.662Z,21.44
2018-07-24T07:20:16.687Z,21.46
2018-07-24T07:21:16.702Z,21.40
2018-07-24T07:22:16.766Z,21.28
2018-07-24T07:23:16.742Z,21.52
2018-07-24T07:24:16.754Z,21.65
2018-07-24T07:25:16.779Z,22.07
2018-07-24T07:26:16.856Z,22.28
2018-07-24T07:27:16.822Z,22.37
2018-07-24T07:28:16.873Z,22.68
2018-07-24T07:29:16.913Z,22.82
2018-07-24T07:30:16.851Z,22.46
2018-07-24T07:31:16.879Z,22.47
2018-07-24T07:32:16.970Z,22.54
2018-07-24T07:33:16.909Z,22.58
2018-07-24T07:34:16.977Z,22.49
2018-07-24T07:35:16.945Z,22.31
2018-07-24T07:36:16.955Z,21.99
2018-07-24T07:37:16.982Z,21.77
2018-07-24T07:38:17.001Z,21.56
2018-07-24T07:39:17.084Z,21.56
2018-07-24T07:40:17.085Z,21.47
2018-07-24T07:41:17.057Z,21.47
2018-07-24T07:42:17.069Z,21.64
2018-07-24T07:43:17.081Z,22.00
2018-07-24T07:44:17.113Z,22.46
2018-07-24T07:45:17.155Z,22.61
2018-07-24T07:46:17.254Z,22.75
2018-07-24T07:47:17.151Z,22.83
2018-07-24T07:48:17.167Z,23.05
2018-07-24T07:49:17.198Z,23.33
2018-07-24T07:50:17.217Z,23.57
2018-07-24T07:51:17.230Z,23.42
2018-07-24T07:52:17.296Z,23.20
2018-07-24T07:53:17.259Z,23.13
2018-07-24T07:54:17.277Z,22.91
2018-07-24T07:55:17.295Z,22.94
2018-07-24T07:56:17.313Z,22.92
2018-07-24T07:57:17.334Z,23.02
2018-07-24T07:58:17.347Z,23.46
2018-07-24T07:59:17.370Z,23.83
2018-07-24T08:00:17.386Z,23.76
2018-07-24T08:01:17.407Z,23.57
2018-07-24T08:02:17.424Z,23.46
2018-07-24T08:03:17.491Z,23.58
2018-07-24T08:04:17.609Z,23.46
2018-07-24T08:05:17.476Z,23.53
2018-07-24T08:06:17.496Z,23.75
2018-07-24T08:07:17.509Z,24.16
2018-07-24T08:08:17.542Z,24.22
2018-07-24T08:09:17.569Z,24.32
2018-07-24T08:10:17.631Z,24.28
2018-07-24T08:11:17.601Z,24.27
2018-07-24T08:12:17.682Z,24.18
2018-07-24T08:13:17.791Z,24.12
2018-07-24T08:14:17.648Z,24.09
2018-07-24T08:15:17.668Z,24.06
2018-07-24T08:16:17.743Z,23.78
2018-07-24T08:17:17.700Z,23.68
2018-07-24T08:18:17.726Z,23.48
2018-07-24T08:19:17.735Z,23.35
2018-07-24T08:20:17.762Z,23.25
2018-07-24T08:21:17.809Z,23.19
2018-07-24T08:22:17.884Z,23.07
2018-07-24T08:23:17.810Z,22.97
2018-07-24T08:24:17.834Z,23.05
2018-07-24T08:25:17.850Z,23.07
2018-07-24T08:26:17.866Z,23.09
2018-07-24T08:27:17.957Z,23.09
2018-07-24T08:28:17.952Z,22.91
2018-07-24T08:29:17.928Z,22.98
2018-07-24T08:30:17.951Z,22.82
2018-07-24T08:31:17.961Z,22.82
2018-07-24T08:32:17.981Z,22.79
2018-07-24T08:33:18.006Z,22.70
2018-07-24T08:34:18.017Z,22.68
2018-07-24T08:35:18.043Z,22.55
2018-07-24T08:36:18.052Z,22.51
2018-07-24T08:37:18.071Z,22.45
2018-07-24T08:38:18.098Z,22.61
2018-07-24T08:39:18.111Z,22.58
2018-07-24T08:40:18.124Z,22.58
2018-07-24T08:41:18.150Z,22.61
2018-07-24T08:42:18.174Z,22.67
2018-07-24T08:43:18.180Z,22.72
2018-07-24T08:44:18.202Z,22.88
2018-07-24T08:45:18.222Z,23.12
2018-07-24T08:46:18.233Z,23.25
2018-07-24T08:47:18.252Z,23.19
2018-07-24T08:48:18.310Z,23.42
2018-07-24T08:49:18.436Z,23.60
2018-07-24T08:50:18.308Z,23.72
2018-07-24T08:51:18.324Z,23.83
2018-07-24T08:52:18.541Z,24.08
2018-07-24T08:53:18.727Z,24.13
2018-07-24T08:54:18.590Z,24.22
2018-07-24T08:55:18.913Z,24.31
2018-07-24T08:56:18.427Z,24.06
2018-07-24T08:57:18.490Z,24.12
2018-07-24T08:58:18.565Z,23.91
2018-07-24T08:59:18.476Z,23.43
2018-07-24T09:00:18.494Z,22.90
2018-07-24T09:01:18.516Z,22.72
2018-07-24T09:02:18.535Z,22.52
2018-07-24T09:03:18.605Z,22.46
2018-07-24T09:04:18.671Z,22.49
2018-07-24T09:05:18.581Z,22.58
2018-07-24T09:06:18.611Z,22.79
2018-07-24T09:07:18.628Z,22.82
2018-07-24T09:08:18.651Z,22.86
2018-07-24T09:09:18.661Z,22.82
2018-07-24T09:10:18.793Z,22.85
2018-07-24T09:11:18.697Z,22.80
2018-07-24T09:12:18.714Z,22.86
2018-07-24T09:13:18.733Z,22.92
2018-07-24T09:14:18.749Z,23.01
2018-07-24T09:15:18.771Z,23.05
2018-07-24T09:16:18.845Z,23.23
2018-07-24T09:17:18.808Z,23.23
2018-07-24T09:18:18.835Z,23.12
2018-07-24T09:19:18.844Z,23.04
2018-07-24T09:20:18.872Z,23.19
2018-07-24T09:21:18.886Z,23.95
2018-07-24T09:22:18.953Z,24.60
2018-07-24T09:23:18.957Z,25.28
2018-07-24T09:24:18.942Z,25.87
2018-07-24T09:25:18.962Z,26.10
2018-07-24T09:26:18.978Z,26.45
2018-07-24T09:27:19.001Z,26.63
2018-07-24T09:28:19.017Z,26.72
2018-07-24T09:29:19.039Z,26.50
2018-07-24T09:30:19.049Z,26.54
2018-07-24T09:31:19.070Z,27.02
2018-07-24T09:32:19.089Z,27.25
2018-07-24T09:33:19.167Z,27.87
2018-07-24T09:34:19.127Z,28.56
2018-07-24T09:35:19.196Z,28.98
2018-07-24T09:36:19.172Z,29.36
2018-07-24T09:37:19.189Z,29.76
2018-07-24T09:38:19.207Z,29.70
2018-07-24T09:39:19.280Z,29.53
2018-07-24T09:40:19.292Z,28.59
2018-07-24T09:41:19.295Z,27.14
2018-07-24T09:42:19.287Z,26.17
2018-07-24T09:43:19.316Z,26.33
2018-07-24T09:44:19.341Z,26.10
2018-07-24T09:45:19.407Z,25.60
2018-07-24T09:46:19.373Z,25.61
2018-07-24T09:47:19.423Z,25.88
2018-07-24T09:48:19.413Z,26.72
2018-07-24T09:49:19.447Z,27.13
2018-07-24T09:50:19.459Z,27.99
2018-07-24T09:51:19.484Z,27.99
2018-07-24T09:52:19.497Z,28.02
2018-07-24T09:53:19.535Z,28.51
2018-07-24T09:54:19.547Z,29.06
2018-07-24T09:55:19.564Z,28.88
2018-07-24T09:56:19.641Z,28.95
2018-07-24T09:57:19.649Z,29.36
2018-07-24T09:58:19.619Z,29.27
2018-07-24T09:59:19.708Z,27.88
2018-07-24T10:00:19.674Z,27.37
2018-07-24T10:01:19.690Z,27.00
2018-07-24T10:02:19.712Z,26.51
2018-07-24T10:03:19.785Z,26.43
2018-07-24T10:04:19.751Z,26.13
2018-07-24T10:05:19.800Z,25.77
2018-07-24T10:06:19.795Z,25.70
2018-07-24T10:07:19.809Z,25.80
2018-07-24T10:08:19.835Z,25.87
2018-07-24T10:09:19.903Z,25.69
2018-07-24T10:10:19.877Z,26.36
2018-07-24T10:11:19.896Z,27.21
2018-07-24T10:12:19.920Z,27.93
2018-07-24T10:13:20.101Z,28.12
2018-07-24T10:14:19.962Z,28.22
2018-07-24T10:15:20.040Z,28.09
2018-07-24T10:16:20.011Z,28.51
2018-07-24T10:17:20.017Z,28.66
2018-07-24T10:18:20.047Z,28.40
2018-07-24T10:19:20.056Z,27.85
2018-07-24T10:20:20.081Z,27.39
2018-07-24T10:21:20.157Z,26.43
2018-07-24T10:22:20.197Z,26.18
2018-07-24T10:23:20.152Z,26.80
2018-07-24T10:24:20.245Z,27.29
2018-07-24T10:25:20.196Z,27.62
2018-07-24T10:26:20.212Z,28.02
2018-07-24T10:27:20.291Z,28.18
2018-07-24T10:28:20.256Z,28.19
2018-07-24T10:29:20.280Z,28.44
2018-07-24T10:30:20.353Z,28.58
2018-07-24T10:31:20.313Z,28.88
2018-07-24T10:32:20.343Z,28.71
2018-07-24T10:33:20.409Z,28.41
2018-07-24T10:34:20.375Z,27.47
2018-07-24T10:35:20.408Z,26.85
2018-07-24T10:36:20.491Z,26.92
2018-07-24T10:37:20.445Z,27.62
2018-07-24T10:38:20.472Z,28.00
2018-07-24T10:39:20.489Z,27.96
2018-07-24T10:40:20.516Z,27.77
2018-07-24T10:41:20.536Z,27.41
2018-07-24T10:42:20.570Z,26.73
2018-07-24T10:43:20.575Z,26.40
2018-07-24T10:44:20.599Z,26.17
2018-07-24T10:45:20.615Z,26.09
2018-07-24T10:46:20.629Z,26.40
2018-07-24T10:47:20.671Z,27.17
2018-07-24T10:48:20.686Z,27.57
2018-07-24T10:49:20.748Z,27.22
2018-07-24T10:50:20.716Z,27.13
2018-07-24T10:51:20.743Z,26.87
2018-07-24T10:52:20.769Z,26.88
2018-07-24T10:53:20.778Z,26.91
2018-07-24T10:54:20.808Z,27.14
2018-07-24T10:55:20.919Z,27.28
2018-07-24T10:56:20.845Z,27.96
2018-07-24T10:57:20.917Z,28.90
2018-07-24T10:58:20.886Z,29.79
2018-07-24T10:59:20.907Z,30.46
2018-07-24T11:00:20.929Z,30.08
2018-07-24T11:01:21.004Z,29.97
2018-07-24T11:02:20.969Z,30.16
2018-07-24T11:03:20.992Z,29.51
2018-07-24T11:04:21.017Z,29.68
2018-07-24T11:05:21.139Z,29.34
2018-07-24T11:06:21.064Z,29.74
2018-07-24T11:07:21.152Z,29.53
2018-07-24T11:08:21.097Z,29.65
2018-07-24T11:09:21.127Z,29.86
2018-07-24T11:10:21.144Z,30.19
2018-07-24T11:11:21.167Z,30.24
2018-07-24T11:12:21.195Z,30.02
2018-07-24T11:13:21.216Z,29.67
2018-07-24T11:14:21.232Z,28.73
2018-07-24T11:15:21.253Z,28.21
2018-07-24T11:16:21.281Z,27.49
2018-07-24T11:17:21.299Z,27.14
2018-07-24T11:18:21.324Z,26.89
2018-07-24T11:19:21.353Z,26.47
2018-07-24T11:20:21.450Z,26.70
2018-07-24T11:21:21.385Z,27.25
2018-07-24T11:22:21.481Z,28.02
2018-07-24T11:23:21.558Z,28.34
2018-07-24T11:24:21.449Z,28.18
2018-07-24T11:25:21.472Z,28.70
2018-07-24T11:26:21.547Z,28.76
2018-07-24T11:27:21.590Z,29.30
2018-07-24T11:28:21.609Z,29.78
2018-07-24T11:29:21.572Z,30.22
2018-07-24T11:30:21.580Z,30.58
2018-07-24T11:31:21.611Z,30.49
2018-07-24T11:32:21.673Z,30.45
2018-07-24T11:33:21.779Z,29.87
2018-07-24T11:34:21.671Z,29.87
2018-07-24T11:35:21.685Z,29.57
2018-07-24T11:36:21.795Z,29.27
2018-07-24T11:37:21.733Z,28.68
2018-07-24T11:38:21.809Z,28.36
2018-07-24T11:39:21.825Z,28.61
2018-07-24T11:40:21.818Z,29.33
2018-07-24T11:41:21.825Z,29.14
2018-07-24T11:42:21.848Z,28.68
2018-07-24T11:43:21.868Z,28.15
2018-07-24T11:44:21.941Z,28.14
2018-07-24T11:45:21.908Z,28.61
2018-07-24T11:46:21.932Z,29.30
2018-07-24T11:47:21.961Z,30.15
2018-07-24T11:48:21.983Z,30.02
2018-07-24T11:49:21.997Z,29.65
2018-07-24T11:50:22.082Z,28.90
2018-07-24T11:51:22.070Z,28.43
2018-07-24T11:52:22.075Z,28.07
2018-07-24T11:53:22.090Z,28.02
2018-07-24T11:54:22.118Z,27.77
2018-07-24T11:55:22.135Z,27.31
2018-07-24T11:56:22.167Z,27.62
2018-07-24T11:57:22.182Z,28.54
2018-07-24T11:58:22.192Z,29.12
2018-07-24T11:59:22.227Z,29.51
2018-07-24T12:00:22.248Z,29.53
2018-07-24T12:01:22.275Z,29.82
2018-07-24T12:02:22.286Z,29.14
2018-07-24T12:03:22.356Z,29.51
2018-07-24T12:04:22.365Z,29.46
2018-07-24T12:05:22.355Z,29.67
2018-07-24T12:06:22.377Z,29.82
2018-07-24T12:07:22.393Z,28.58
2018-07-24T12:08:22.469Z,27.88
2018-07-24T12:09:22.437Z,28.96
2018-07-24T12:10:22.519Z,29.41
2018-07-24T12:11:22.483Z,29.36
2018-07-24T12:12:22.511Z,29.49
2018-07-24T12:13:22.534Z,29.37
2018-07-24T12:14:22.547Z,29.14
2018-07-24T12:15:22.571Z,29.28
2018-07-24T12:16:22.679Z,29.51
2018-07-24T12:17:22.618Z,29.52
2018-07-24T12:18:22.638Z,28.93
2018-07-24T12:19:22.652Z,29.43
2018-07-24T12:20:22.734Z,29.97
2018-07-24T12:21:22.707Z,29.95
2018-07-24T12:22:22.750Z,29.68
2018-07-24T12:23:22.754Z,29.02
2018-07-24T12:24:22.768Z,27.74
2018-07-24T12:25:22.788Z,27.18
2018-07-24T12:26:22.822Z,26.47
2018-07-24T12:27:22.837Z,26.45
2018-07-24T12:28:22.859Z,26.88
2018-07-24T12:29:22.882Z,27.10
2018-07-24T12:30:22.901Z,27.46
2018-07-24T12:31:22.925Z,27.79
2018-07-24T12:32:22.999Z,28.34
2018-07-24T12:33:22.971Z,28.70
2018-07-24T12:34:22.988Z,28.96
2018-07-24T12:35:23.004Z,29.04
2018-07-24T12:36:23.031Z,29.39
2018-07-24T12:37:23.050Z,29.26
2018-07-24T12:38:23.087Z,29.21
2018-07-24T12:39:23.088Z,28.78
2018-07-24T12:40:23.119Z,28.81
2018-07-24T12:41:23.147Z,28.89
2018-07-24T12:42:23.157Z,29.23
2018-07-24T12:43:23.179Z,29.18
2018-07-24T12:44:23.202Z,29.11
2018-07-24T12:45:23.231Z,29.30
2018-07-24T12:46:23.245Z,29.16
2018-07-24T12:47:23.273Z,29.28
2018-07-24T12:48:23.292Z,28.90
2018-07-24T12:49:23.364Z,29.18
2018-07-24T12:50:23.338Z,29.21
2018-07-24T12:51:23.356Z,29.42
2018-07-24T12:52:23.530Z,29.83